createdAt,value
2019-02-08T00:00:51.887Z,23.35
2019-02-08T00:03:20.471Z,20.00
2019-02-08T00:05:49.131Z,23.12
2019-02-08T00:08:18.072Z,20.85
2019-02-08T00:10:50.345Z,19.00
2019-02-08T00:13:18.966Z,16.45
2019-02-08T00:15:47.817Z,20.92
2019-02-08T00:18:16.458Z,24.12
2019-02-08T00:20:45.778Z,24.00
2019-02-08T00:23:25.967Z,22.22
2019-02-08T00:25:44.557Z,19.10
2019-02-08T00:28:13.208Z,19.87
2019-02-08T00:30:41.841Z,23.07
2019-02-08T00:33:10.571Z,23.12
2019-02-08T00:35:39.293Z,17.45
2019-02-08T00:38:08.013Z,19.12
2019-02-08T00:40:36.870Z,19.77
2019-02-08T00:43:06.278Z,17.52
2019-02-08T00:45:34.869Z,18.02
2019-02-08T00:48:03.490Z,19.60
2019-02-08T00:50:32.081Z,22.70
2019-02-08T00:53:00.719Z,17.57
2019-02-08T00:55:29.262Z,16.97
2019-02-08T00:57:58.316Z,16.70
2019-02-08T01:00:26.960Z,17.17
2019-02-08T01:02:55.851Z,18.80
2019-02-08T01:05:29.411Z,18.92
2019-02-08T01:07:58.125Z,16.50
2019-02-08T01:10:29.781Z,17.25
2019-02-08T01:12:59.386Z,20.90
2019-02-08T01:15:30.701Z,17.52
2019-02-08T01:17:59.295Z,15.05
2019-02-08T01:20:28.106Z,24.15
2019-02-08T01:22:56.719Z,16.00
2019-02-08T01:25:28.362Z,15.00
2019-02-08T01:27:57.010Z,16.45
2019-02-08T01:30:31.393Z,14.98
2019-02-08T01:33:00.879Z,21.05
2019-02-08T01:35:30.632Z,18.00
2019-02-08T01:38:00.577Z,20.60
2019-02-08T01:40:39.855Z,19.15
2019-02-08T01:43:09.986Z,22.15
2019-02-08T01:45:38.682Z,16.05
2019-02-08T01:48:08.427Z,19.48
2019-02-08T01:50:36.983Z,20.32
2019-02-08T01:53:05.999Z,16.48
2019-02-08T01:55:34.463Z,13.30
2019-02-08T01:58:03.200Z,15.25
2019-02-08T02:00:40.577Z,14.93
2019-02-08T02:03:10.263Z,16.45
2019-02-08T02:05:38.988Z,22.67
2019-02-08T02:08:07.800Z,18.42
2019-02-08T02:10:38.607Z,13.60
2019-02-08T02:13:08.038Z,22.52
2019-02-08T02:15:36.693Z,16.15
2019-02-08T02:18:06.086Z,19.17
2019-02-08T02:20:37.716Z,15.83
2019-02-08T02:23:08.461Z,17.27
2019-02-08T02:25:37.262Z,18.50
2019-02-08T02:28:06.418Z,17.52
2019-02-08T02:30:36.461Z,16.23
2019-02-08T02:33:10.204Z,20.65
2019-02-08T02:35:38.923Z,17.62
2019-02-08T02:38:07.717Z,12.50
2019-02-08T02:40:36.786Z,15.50
2019-02-08T02:43:06.526Z,17.45
2019-02-08T02:45:41.649Z,13.80
2019-02-08T02:48:12.857Z,11.43
2019-02-08T02:50:41.613Z,13.93
2019-02-08T02:53:10.503Z,17.50
2019-02-08T02:55:39.091Z,14.10
2019-02-08T02:58:07.837Z,13.15
2019-02-08T03:00:39.439Z,16.37
2019-02-08T03:03:08.105Z,15.30
2019-02-08T03:05:36.802Z,15.68
2019-02-08T03:08:07.671Z,15.83
2019-02-08T03:10:36.538Z,14.98
2019-02-08T03:13:06.644Z,14.75
2019-02-08T03:15:35.260Z,12.93
2019-02-08T03:18:04.542Z,16.93
2019-02-08T03:20:33.203Z,13.80
2019-02-08T03:23:01.740Z,12.65
2019-02-08T03:25:31.874Z,12.18
2019-02-08T03:28:00.477Z,11.22
2019-02-08T03:30:45.383Z,16.62
2019-02-08T03:33:13.994Z,11.57
2019-02-08T03:35:42.607Z,14.47
2019-02-08T03:38:12.053Z,13.55
2019-02-08T03:40:40.601Z,13.08
2019-02-08T03:43:09.416Z,12.35
2019-02-08T03:45:46.015Z,13.72
2019-02-08T03:48:14.574Z,12.58
2019-02-08T03:50:43.249Z,14.83
2019-02-08T03:53:11.992Z,12.60
2019-02-08T03:55:43.449Z,13.08
2019-02-08T03:58:12.093Z,12.53
2019-02-08T04:00:50.539Z,11.53
2019-02-08T04:03:19.074Z,12.78
2019-02-08T04:05:47.613Z,13.78
2019-02-08T04:08:16.314Z,17.52
2019-02-08T04:10:45.275Z,12.82
2019-02-08T04:13:13.811Z,11.93
2019-02-08T04:15:43.054Z,10.23
2019-02-08T04:18:11.700Z,17.48
2019-02-08T04:20:44.898Z,11.50
2019-02-08T04:23:13.474Z,9.58
2019-02-08T04:25:42.006Z,9.85
2019-02-08T04:28:10.655Z,11.70
2019-02-08T04:30:39.385Z,16.97
2019-02-08T04:33:09.400Z,10.50
2019-02-08T04:35:37.933Z,12.93
2019-02-08T04:38:06.615Z,9.63
2019-02-08T04:40:37.382Z,9.25
2019-02-08T04:43:06.106Z,12.07
2019-02-08T04:45:35.113Z,7.40
2019-02-08T04:48:03.627Z,7.45
2019-02-08T04:50:33.736Z,14.23
2019-02-08T04:53:02.336Z,9.78
2019-02-08T04:55:31.043Z,10.80
2019-02-08T04:57:59.707Z,10.98
2019-02-08T05:00:31.191Z,7.03
2019-02-08T05:03:00.083Z,11.40
2019-02-08T05:05:29.149Z,5.58
2019-02-08T05:07:59.428Z,9.28
2019-02-08T05:10:41.707Z,6.72
2019-02-08T05:13:12.974Z,6.12
2019-02-08T05:15:41.525Z,9.73
2019-02-08T05:18:09.989Z,7.08
2019-02-08T05:20:43.845Z,5.10
2019-02-08T05:23:12.362Z,5.05
2019-02-08T05:25:42.477Z,11.60
2019-02-08T05:28:11.144Z,10.68
2019-02-08T05:30:39.872Z,8.23
2019-02-08T05:33:10.375Z,3.75
2019-02-08T05:35:39.610Z,6.40
2019-02-08T05:38:08.271Z,4.28
2019-02-08T05:40:38.502Z,6.67
2019-02-08T05:43:08.913Z,7.10
2019-02-08T05:45:37.387Z,4.25
2019-02-08T05:48:06.134Z,7.33
2019-02-08T05:50:34.674Z,4.40
2019-02-08T05:53:03.184Z,4.03
2019-02-08T05:55:34.234Z,8.88
2019-02-08T05:58:03.010Z,5.20
2019-02-08T06:00:47.677Z,3.85
2019-02-08T06:03:16.314Z,3.67
2019-02-08T06:05:45.852Z,4.08
2019-02-08T06:08:14.547Z,4.17
2019-02-08T06:10:43.077Z,10.82
2019-02-08T06:13:11.722Z,3.45
2019-02-08T06:15:41.914Z,5.05
2019-02-08T06:18:11.913Z,3.98
2019-02-08T06:20:40.513Z,3.40
2019-02-08T06:23:09.573Z,6.45
2019-02-08T06:25:38.263Z,2.83
2019-02-08T06:28:09.036Z,8.45
2019-02-08T06:30:37.698Z,7.95
2019-02-08T06:33:09.291Z,3.83
2019-02-08T06:35:37.842Z,3.30
2019-02-08T06:38:06.565Z,5.25
2019-02-08T06:40:43.880Z,4.28
2019-02-08T06:43:12.621Z,6.15
2019-02-08T06:45:41.303Z,5.40
2019-02-08T06:48:12.162Z,4.30
2019-02-08T06:50:40.652Z,12.60
2019-02-08T06:53:10.411Z,3.95
2019-02-08T06:55:39.029Z,3.20
2019-02-08T06:58:28.787Z,2.98
2019-02-08T07:01:01.809Z,4.00
2019-02-08T07:03:48.822Z,4.20
2019-02-08T07:06:24.126Z,5.30
2019-02-08T07:09:12.010Z,6.15
2019-02-08T07:11:47.966Z,5.03
2019-02-08T07:14:19.045Z,2.65
2019-02-08T07:17:08.833Z,3.45
2019-02-08T07:19:39.396Z,5.00
2019-02-08T07:22:32.942Z,2.87
2019-02-08T07:25:27.017Z,5.70
2019-02-08T07:28:03.231Z,3.40
2019-02-08T07:30:49.365Z,5.80
2019-02-08T07:33:22.593Z,3.08
2019-02-08T07:35:53.838Z,6.08
2019-02-08T07:38:24.516Z,2.67
2019-02-08T07:41:00.120Z,6.37
2019-02-08T07:43:36.435Z,4.80
2019-02-08T07:46:11.213Z,2.98
2019-02-08T07:48:59.433Z,4.60
2019-02-08T07:51:31.290Z,4.47
2019-02-08T07:54:16.704Z,3.62
2019-02-08T07:56:47.132Z,8.88
2019-02-08T07:59:33.779Z,3.62
2019-02-08T08:02:14.416Z,3.47
2019-02-08T08:04:44.705Z,3.70
2019-02-08T08:07:30.163Z,4.67
2019-02-08T08:10:16.721Z,4.15
2019-02-08T08:12:50.210Z,4.37
2019-02-08T08:15:36.264Z,3.85
2019-02-08T08:18:24.376Z,4.87
2019-02-08T08:20:54.729Z,5.33
2019-02-08T08:23:25.923Z,4.30
2019-02-08T08:25:59.407Z,6.58
2019-02-08T08:28:35.741Z,4.10
2019-02-08T08:31:12.021Z,4.10
2019-02-08T08:33:43.642Z,4.70
2019-02-08T08:36:24.033Z,5.60
2019-02-08T08:39:13.486Z,4.83
2019-02-08T08:42:20.066Z,5.80
2019-02-08T08:45:10.881Z,4.92
2019-02-08T08:48:07.851Z,5.15
2019-02-08T08:50:58.712Z,5.03
2019-02-08T08:53:42.171Z,4.95
2019-02-08T08:56:30.555Z,6.95
2019-02-08T08:59:04.710Z,5.60
2019-02-08T09:01:48.550Z,5.58
2019-02-08T09:04:38.623Z,5.28
2019-02-08T09:07:16.321Z,5.20
2019-02-08T09:09:58.738Z,6.03
2019-02-08T09:12:55.695Z,6.57
2019-02-08T09:15:47.955Z,6.00
2019-02-08T09:18:39.292Z,6.70
2019-02-08T09:21:17.053Z,5.80
2019-02-08T09:24:02.944Z,5.75
2019-02-08T09:26:56.867Z,5.83
2019-02-08T09:29:52.956Z,6.20
2019-02-08T09:32:45.689Z,5.10
2019-02-08T09:35:20.296Z,5.65
2019-02-08T09:38:20.342Z,5.62
2019-02-08T09:41:11.319Z,5.70
2019-02-08T09:43:54.879Z,5.33
2019-02-08T09:46:35.681Z,5.55
2019-02-08T09:49:32.955Z,5.85
2019-02-08T09:52:19.658Z,5.62
2019-02-08T09:54:53.737Z,5.90
2019-02-08T09:57:45.077Z,5.10
2019-02-08T10:00:35.810Z,5.50
2019-02-08T10:03:16.306Z,4.80
2019-02-08T10:06:18.208Z,5.58
2019-02-08T10:09:18.332Z,5.22
2019-02-08T10:12:01.627Z,9.88
2019-02-08T10:14:45.004Z,5.00
2019-02-08T10:17:36.269Z,4.92
2019-02-08T10:20:13.833Z,5.80
2019-02-08T10:23:02.129Z,5.05
2019-02-08T10:25:48.848Z,4.85
2019-02-08T10:28:44.520Z,4.95
2019-02-08T10:31:24.792Z,5.20
2019-02-08T10:34:21.953Z,4.78
2019-02-08T10:37:28.580Z,5.33
2019-02-08T10:40:25.678Z,5.33
2019-02-08T10:43:16.938Z,5.47
2019-02-08T10:46:03.779Z,5.70
2019-02-08T10:49:07.334Z,5.87
2019-02-08T10:52:04.519Z,5.53
2019-02-08T10:54:51.259Z,4.40
2019-02-08T10:57:35.043Z,5.00
2019-02-08T11:00:39.846Z,5.17
2019-02-08T11:03:27.905Z,4.65
2019-02-08T11:06:19.063Z,4.85
2019-02-08T11:08:56.266Z,4.42
2019-02-08T11:12:00.968Z,4.58
2019-02-08T11:14:57.073Z,4.60
2019-02-08T11:17:40.121Z,4.45
2019-02-08T11:20:09.701Z,7.28
2019-02-08T11:22:38.342Z,4.50
2019-02-08T11:25:09.179Z,4.20
2019-02-08T11:27:37.775Z,4.00
2019-02-08T11:30:09.324Z,4.57
2019-02-08T11:32:43.378Z,4.57
2019-02-08T11:35:10.620Z,4.97
2019-02-08T11:37:39.320Z,4.63
2019-02-08T11:40:13.840Z,4.85
2019-02-08T11:42:42.453Z,5.43
2019-02-08T11:45:13.974Z,9.55
2019-02-08T11:47:42.617Z,5.03
2019-02-08T11:50:20.203Z,5.10
2019-02-08T11:52:48.898Z,3.90
2019-02-08T11:55:17.546Z,4.30
2019-02-08T11:57:46.125Z,4.17
2019-02-08T12:00:22.016Z,4.17
2019-02-08T12:02:50.656Z,4.27
2019-02-08T12:05:19.333Z,3.80
2019-02-08T12:07:47.945Z,5.20
2019-02-08T12:10:16.725Z,4.03
2019-02-08T12:12:45.315Z,4.10
2019-02-08T12:15:16.997Z,4.63
2019-02-08T12:17:45.652Z,4.40
2019-02-08T12:20:14.352Z,3.87
2019-02-08T12:22:43.339Z,3.80
2019-02-08T12:25:14.453Z,4.10
2019-02-08T12:27:42.956Z,4.30
2019-02-08T12:30:20.816Z,5.10
2019-02-08T12:32:49.351Z,6.33
2019-02-08T12:35:17.998Z,5.30
2019-02-08T12:37:47.329Z,5.23
2019-02-08T12:40:15.881Z,5.40
2019-02-08T12:42:44.466Z,5.10
2019-02-08T12:45:15.809Z,5.80
2019-02-08T12:47:44.422Z,5.50
2019-02-08T12:50:18.113Z,5.47
2019-02-08T12:52:47.058Z,5.57
2019-02-08T12:55:17.490Z,6.20
2019-02-08T12:57:46.149Z,5.80
2019-02-08T13:00:20.352Z,5.83
2019-02-08T13:02:48.972Z,5.13
2019-02-08T13:05:18.851Z,5.57
2019-02-08T13:07:47.774Z,5.30
2019-02-08T13:10:22.169Z,5.60
2019-02-08T13:12:50.833Z,6.23
2019-02-08T13:15:19.632Z,6.60
2019-02-08T13:17:48.289Z,5.53
2019-02-08T13:20:21.740Z,5.93
2019-02-08T13:22:51.140Z,5.43
2019-02-08T13:25:19.803Z,5.77
2019-02-08T13:27:49.032Z,6.00
2019-02-08T13:30:28.980Z,5.73
2019-02-08T13:32:58.139Z,5.80
2019-02-08T13:35:27.824Z,5.93
2019-02-08T13:37:56.450Z,5.70
2019-02-08T13:40:27.425Z,5.07
2019-02-08T13:42:56.039Z,5.50
2019-02-08T13:45:25.235Z,7.13
2019-02-08T13:47:54.041Z,6.53
2019-02-08T13:50:28.238Z,6.30
2019-02-08T13:52:56.790Z,5.27
2019-02-08T13:55:26.330Z,4.97
2019-02-08T13:57:54.991Z,4.80
2019-02-08T14:00:32.450Z,5.20
2019-02-08T14:03:01.045Z,5.23
2019-02-08T14:05:29.788Z,4.93
2019-02-08T14:07:58.264Z,5.10
2019-02-08T14:10:26.912Z,4.50
2019-02-08T14:12:55.394Z,4.40
2019-02-08T14:15:25.451Z,4.60
2019-02-08T14:17:54.242Z,5.00
2019-02-08T14:20:25.618Z,4.63
2019-02-08T14:22:54.458Z,4.70
2019-02-08T14:25:23.895Z,4.60
2019-02-08T14:27:52.995Z,4.63
2019-02-08T14:30:27.723Z,4.20
2019-02-08T14:32:56.353Z,4.60
2019-02-08T14:35:25.121Z,4.63
2019-02-08T14:37:54.144Z,4.60
2019-02-08T14:40:27.319Z,4.43
2019-02-08T14:42:55.985Z,4.33
2019-02-08T14:45:24.564Z,4.50
2019-02-08T14:47:53.223Z,4.60
2019-02-08T14:50:24.418Z,4.60
2019-02-08T14:52:53.597Z,5.00
2019-02-08T14:55:22.293Z,5.10
2019-02-08T14:57:52.123Z,4.40
2019-02-08T15:00:24.059Z,6.60
2019-02-08T15:02:52.853Z,5.70
2019-02-08T15:05:22.667Z,3.90
2019-02-08T15:07:51.574Z,4.30
2019-02-08T15:10:29.227Z,4.20
2019-02-08T15:12:58.161Z,4.13
2019-02-08T15:15:26.825Z,6.07
2019-02-08T15:17:55.368Z,5.60
2019-02-08T15:20:26.582Z,6.27
2019-02-08T15:22:55.222Z,4.63
2019-02-08T15:25:23.864Z,4.60
2019-02-08T15:27:52.403Z,4.23
2019-02-08T15:30:23.978Z,4.30
2019-02-08T15:32:52.542Z,5.57
2019-02-08T15:35:23.579Z,3.70
2019-02-08T15:37:52.289Z,3.53
2019-02-08T15:40:24.226Z,3.73
2019-02-08T15:42:53.449Z,4.30
2019-02-08T15:45:22.464Z,3.60
2019-02-08T15:47:51.066Z,3.53
2019-02-08T15:50:21.216Z,3.90
2019-02-08T15:52:49.817Z,3.93
2019-02-08T15:55:24.253Z,3.10
2019-02-08T15:57:52.833Z,4.35
2019-02-08T16:00:26.984Z,3.65
2019-02-08T16:02:55.825Z,4.07
2019-02-08T16:05:24.658Z,3.33
2019-02-08T16:07:53.198Z,3.60
2019-02-08T16:10:21.733Z,3.60
2019-02-08T16:12:50.428Z,3.40
2019-02-08T16:15:31.472Z,3.60
2019-02-08T16:18:00.086Z,3.85
2019-02-08T16:20:29.862Z,3.50
2019-02-08T16:22:59.545Z,4.53
2019-02-08T16:25:30.277Z,3.80
2019-02-08T16:27:59.001Z,5.10
2019-02-08T16:30:29.621Z,3.95
2019-02-08T16:32:58.313Z,3.80
2019-02-08T16:35:27.259Z,4.17
2019-02-08T16:37:55.921Z,4.20
2019-02-08T16:40:26.351Z,5.20
2019-02-08T16:42:55.011Z,3.47
2019-02-08T16:45:26.196Z,6.45
2019-02-08T16:47:55.523Z,3.70
2019-02-08T16:50:27.211Z,4.25
2019-02-08T16:52:55.915Z,3.55
2019-02-08T16:55:24.667Z,2.92
2019-02-08T16:57:53.417Z,3.12
2019-02-08T17:00:27.825Z,3.35
2019-02-08T17:02:57.932Z,3.33
2019-02-08T17:05:27.634Z,3.47
2019-02-08T17:07:56.282Z,6.97
2019-02-08T17:10:25.006Z,4.12
2019-02-08T17:12:53.564Z,3.05
2019-02-08T17:15:24.585Z,7.42
2019-02-08T17:17:53.393Z,4.47
2019-02-08T17:20:27.770Z,3.10
2019-02-08T17:22:56.413Z,7.20
2019-02-08T17:25:25.475Z,3.27
2019-02-08T17:27:55.441Z,5.42
2019-02-08T17:30:24.505Z,2.90
2019-02-08T17:32:53.080Z,4.15
2019-02-08T17:35:23.895Z,3.05
2019-02-08T17:37:52.535Z,2.65
2019-02-08T17:40:23.745Z,3.27
2019-02-08T17:42:52.385Z,5.15
2019-02-08T17:45:21.518Z,2.80
2019-02-08T17:47:50.744Z,2.90
2019-02-08T17:50:21.919Z,2.47
2019-02-08T17:52:50.709Z,3.95
2019-02-08T17:55:28.002Z,5.25
2019-02-08T17:58:03.588Z,4.95
2019-02-08T18:00:33.916Z,3.30
2019-02-08T18:03:02.469Z,4.10
2019-02-08T18:05:31.130Z,7.20
2019-02-08T18:07:59.622Z,4.00
2019-02-08T18:10:28.688Z,4.05
2019-02-08T18:12:57.432Z,7.28
2019-02-08T18:15:27.118Z,5.33
2019-02-08T18:17:55.707Z,4.45
2019-02-08T18:20:29.976Z,4.33
2019-02-08T18:22:58.801Z,10.25
2019-02-08T18:25:27.406Z,5.20
2019-02-08T18:27:56.033Z,9.23
2019-02-08T18:30:25.872Z,8.48
2019-02-08T18:32:54.499Z,5.00
2019-02-08T18:35:23.153Z,5.67
2019-02-08T18:37:51.834Z,8.38
2019-02-08T18:40:23.674Z,9.90
2019-02-08T18:42:52.319Z,6.40
2019-02-08T18:45:38.033Z,6.47
2019-02-08T18:48:08.164Z,7.22
2019-02-08T18:50:51.835Z,7.12
2019-02-08T18:53:20.433Z,8.23
2019-02-08T18:55:48.995Z,8.30
2019-02-08T18:58:19.252Z,8.35
2019-02-08T19:00:52.070Z,9.43
2019-02-08T19:03:21.732Z,9.08
2019-02-08T19:05:50.541Z,9.33
2019-02-08T19:08:19.154Z,7.35
2019-02-08T19:10:47.690Z,10.55
2019-02-08T19:13:16.217Z,8.23
2019-02-08T19:15:44.918Z,8.40
2019-02-08T19:18:13.412Z,12.18
2019-02-08T19:20:41.974Z,8.93
2019-02-08T19:23:10.519Z,12.03
2019-02-08T19:25:42.426Z,10.43
2019-02-08T19:28:12.574Z,9.05
2019-02-08T19:30:43.826Z,11.85
2019-02-08T19:33:12.567Z,7.97
2019-02-08T19:35:41.255Z,12.65
2019-02-08T19:38:10.021Z,10.10
2019-02-08T19:40:46.867Z,10.90
2019-02-08T19:43:15.403Z,9.18
2019-02-08T19:45:44.214Z,11.63
2019-02-08T19:48:12.822Z,7.97
2019-02-08T19:50:44.379Z,8.65
2019-02-08T19:53:13.001Z,7.70
2019-02-08T19:55:42.399Z,8.35
2019-02-08T19:58:11.451Z,7.37
2019-02-08T20:00:44.576Z,8.23
2019-02-08T20:03:13.258Z,10.48
2019-02-08T20:05:42.127Z,9.55
2019-02-08T20:08:13.653Z,7.75
2019-02-08T20:10:45.025Z,14.98
2019-02-08T20:13:13.703Z,7.70
2019-02-08T20:15:42.360Z,7.95
2019-02-08T20:18:11.164Z,7.08
2019-02-08T20:20:39.739Z,8.35
2019-02-08T20:23:08.550Z,8.30
2019-02-08T20:25:37.763Z,8.20
2019-02-08T20:28:07.463Z,8.30
2019-02-08T20:30:36.416Z,7.75
2019-02-08T20:33:06.819Z,5.90
2019-02-08T20:35:35.435Z,12.00
2019-02-08T20:38:05.114Z,7.50
2019-02-08T20:40:44.925Z,6.90
2019-02-08T20:43:13.462Z,8.90
2019-02-08T20:45:42.032Z,5.65
2019-02-08T20:48:13.409Z,12.60
2019-02-08T20:50:42.144Z,7.90
2019-02-08T20:53:10.787Z,8.25
2019-02-08T20:55:39.540Z,8.83
2019-02-08T20:58:11.181Z,7.67
2019-02-08T21:00:42.774Z,6.85
2019-02-08T21:03:18.021Z,7.90
2019-02-08T21:05:48.241Z,8.78
2019-02-08T21:08:17.898Z,5.00
2019-02-08T21:10:46.637Z,4.97
2019-02-08T21:13:15.234Z,6.97
2019-02-08T21:15:43.964Z,5.20
2019-02-08T21:18:12.575Z,5.40
2019-02-08T21:20:41.440Z,6.60
2019-02-08T21:23:10.045Z,6.35
2019-02-08T21:25:40.950Z,6.53
2019-02-08T21:28:09.591Z,7.33
2019-02-08T21:30:38.369Z,5.22
2019-02-08T21:33:09.444Z,5.40
2019-02-08T21:35:38.021Z,7.00
2019-02-08T21:38:08.637Z,5.25
2019-02-08T21:40:37.365Z,5.37
2019-02-08T21:43:07.278Z,7.40
2019-02-08T21:45:37.847Z,4.83
2019-02-08T21:48:08.534Z,8.80
2019-02-08T21:50:37.348Z,4.25
2019-02-08T21:53:06.204Z,4.37
2019-02-08T21:55:35.197Z,5.92
2019-02-08T21:58:11.683Z,7.47
2019-02-08T22:00:51.760Z,7.53
2019-02-08T22:03:20.381Z,6.50
2019-02-08T22:05:56.585Z,5.08
2019-02-08T22:08:25.315Z,6.00
2019-02-08T22:10:54.085Z,5.42
2019-02-08T22:13:22.683Z,5.08
2019-02-08T22:15:51.374Z,4.37
2019-02-08T22:18:20.280Z,5.75
2019-02-08T22:20:48.935Z,4.90
2019-02-08T22:23:17.591Z,4.50
2019-02-08T22:25:46.164Z,4.10
2019-02-08T22:28:14.881Z,5.97
2019-02-08T22:30:43.623Z,5.00
2019-02-08T22:33:12.243Z,5.25
2019-02-08T22:35:40.874Z,4.80
2019-02-08T22:38:09.675Z,6.17
2019-02-08T22:40:38.334Z,4.70
2019-02-08T22:43:07.786Z,5.60
2019-02-08T22:45:39.398Z,5.45
2019-02-08T22:48:08.361Z,6.53
2019-02-08T22:50:38.426Z,4.58
2019-02-08T22:53:07.934Z,4.75
2019-02-08T22:55:37.571Z,10.20
2019-02-08T22:58:08.500Z,5.62
2019-02-08T23:00:44.632Z,8.03
2019-02-08T23:03:15.908Z,6.20
2019-02-08T23:05:46.042Z,4.42
2019-02-08T23:08:14.817Z,4.80
2019-02-08T23:10:43.409Z,4.95
2019-02-08T23:13:12.871Z,5.15
2019-02-08T23:15:41.613Z,5.37
2019-02-08T23:18:12.317Z,8.28
2019-02-08T23:20:41.067Z,4.37
2019-02-08T23:23:09.866Z,4.60
2019-02-08T23:25:38.418Z,4.60
2019-02-08T23:28:07.870Z,4.67
2019-02-08T23:30:36.599Z,6.45
2019-02-08T23:33:05.758Z,4.70
2019-02-08T23:35:34.451Z,4.20
2019-02-08T23:38:02.959Z,5.83
2019-02-08T23:40:31.650Z,5.03
2019-02-08T23:43:00.461Z,6.25
2019-02-08T23:45:29.257Z,4.35
2019-02-08T23:47:57.953Z,5.53
2019-02-08T23:50:26.563Z,4.25
2019-02-08T23:52:55.339Z,4.08
2019-02-08T23:55:26.695Z,4.67
2019-02-08T23:57:55.256Z,6.00
